createdAt,value
2022-09-22T00:01:32.025Z,102217.28
2022-09-22T00:04:03.659Z,102214.03
2022-09-22T00:06:34.787Z,102207.53
2022-09-22T00:09:04.052Z,102212.44
2022-09-22T00:11:36.083Z,102204.88
2022-09-22T00:14:07.067Z,102206.25
2022-09-22T00:16:39.050Z,102215.50
2022-09-22T00:19:07.778Z,102210.06
2022-09-22T00:21:37.194Z,102204.63
2022-09-22T00:24:08.075Z,102211.69
2022-09-22T00:26:36.696Z,102206.53
2022-09-22T00:29:05.376Z,102200.00
2022-09-22T00:31:33.167Z,102211.97
2022-09-22T00:34:01.145Z,102209.25
2022-09-22T00:36:29.588Z,102206.81
2022-09-22T00:38:59.967Z,102196.25
2022-09-22T00:41:30.272Z,102204.41
2022-09-22T00:44:32.983Z,102200.09
2022-09-22T00:47:05.048Z,102203.34
2022-09-22T00:49:38.949Z,102201.72
2022-09-22T00:52:07.339Z,102209.06
2022-09-22T00:54:36.553Z,102201.72
2022-09-22T00:57:09.398Z,102199.28
2022-09-22T00:59:37.552Z,102198.47
2022-09-22T01:02:07.629Z,102202.28
2022-09-22T01:04:35.793Z,102193.59
2022-09-22T01:07:05.718Z,102191.97
2022-09-22T01:09:34.213Z,102190.34
2022-09-22T01:12:04.868Z,102190.34
2022-09-22T01:14:53.819Z,102184.94
2022-09-22T01:17:30.780Z,102188.25
2022-09-22T01:20:32.164Z,102184.22
2022-09-22T01:23:25.233Z,102188.31
2022-09-22T01:26:16.545Z,102185.09
2022-09-22T01:29:05.870Z,102181.88
2022-09-22T01:31:39.265Z,102178.09
2022-09-22T01:34:13.326Z,102175.94
2022-09-22T01:36:48.144Z,102170.53
2022-09-22T01:39:19.611Z,102167.28
2022-09-22T01:41:53.660Z,102174.13
2022-09-22T01:44:28.719Z,102167.31
2022-09-22T01:47:03.958Z,102168.72
2022-09-22T01:49:36.583Z,102162.75
2022-09-22T01:52:10.812Z,102164.09
2022-09-22T01:54:42.767Z,102163.06
2022-09-22T01:57:15.433Z,102162.53
2022-09-22T01:59:47.899Z,102152.22
2022-09-22T02:02:23.620Z,102152.81
2022-09-22T02:04:58.116Z,102150.63
2022-09-22T02:07:33.838Z,102149.59
2022-09-22T02:10:06.603Z,102149.03
2022-09-22T02:12:35.879Z,102144.19
2022-09-22T02:15:03.813Z,102149.91
2022-09-22T02:17:35.312Z,102141.22
2022-09-22T02:20:06.409Z,102141.78
2022-09-22T02:22:34.198Z,102135.00
2022-09-22T02:25:02.223Z,102142.06
2022-09-22T02:27:36.832Z,102144.25
2022-09-22T02:30:08.195Z,102139.38
2022-09-22T02:32:40.277Z,102136.13
2022-09-22T02:35:09.993Z,102136.72
2022-09-22T02:37:43.459Z,102140.78
2022-09-22T02:40:19.014Z,102139.44
2022-09-22T02:42:50.588Z,102134.59
2022-09-22T02:45:23.585Z,102131.31
2022-09-22T02:47:57.212Z,102133.50
2022-09-22T02:50:28.254Z,102134.88
2022-09-22T02:52:59.594Z,102130.00
2022-09-22T02:55:27.313Z,102133.00
2022-09-22T02:57:55.211Z,102132.47
2022-09-22T03:00:23.209Z,102132.16
2022-09-22T03:02:50.958Z,102118.88
2022-09-22T03:05:20.393Z,102122.97
2022-09-22T03:07:48.184Z,102120.53
2022-09-22T03:10:16.272Z,102120.53
2022-09-22T03:13:09.058Z,102121.06
2022-09-22T03:15:31.896Z,102125.97
2022-09-22T03:18:00.029Z,102121.91
2022-09-22T03:20:29.301Z,102122.19
2022-09-22T03:22:57.070Z,102121.13
2022-09-22T03:25:24.857Z,102119.50
2022-09-22T03:27:52.595Z,102114.34
2022-09-22T03:30:21.093Z,102113.00
2022-09-22T03:32:48.856Z,102115.19
2022-09-22T03:35:16.689Z,102109.19
2022-09-22T03:37:46.675Z,102108.69
2022-09-22T03:40:14.488Z,102109.25
2022-09-22T03:42:42.518Z,102106.78
2022-09-22T03:45:12.648Z,102113.56
2022-09-22T03:47:40.416Z,102105.72
2022-09-22T03:50:08.975Z,102108.72
2022-09-22T03:52:36.834Z,102103.81
2022-09-22T03:55:06.961Z,102098.41
2022-09-22T03:57:34.774Z,102091.38
2022-09-22T04:00:02.813Z,102088.13
2022-09-22T04:02:30.597Z,102091.38
2022-09-22T04:04:58.460Z,102092.19
2022-09-22T04:07:26.172Z,102086.75
2022-09-22T04:09:54.288Z,102081.34
2022-09-22T04:12:23.436Z,102077.28
2022-09-22T04:14:51.154Z,102079.16
2022-09-22T04:17:20.532Z,102087.84
2022-09-22T04:19:48.464Z,102076.19
2022-09-22T04:22:16.373Z,102083.22
2022-09-22T04:24:44.253Z,102087.03
2022-09-22T04:27:20.658Z,102087.03
2022-09-22T04:29:50.499Z,102083.22
2022-09-22T04:32:18.990Z,102087.03
2022-09-22T04:34:47.767Z,102093.25
2022-09-22T04:37:15.564Z,102083.75
2022-09-22T04:39:43.946Z,102084.56
2022-09-22T04:42:11.709Z,102085.94
2022-09-22T04:44:39.436Z,102084.59
2022-09-22T04:47:08.667Z,102084.88
2022-09-22T04:49:36.378Z,102083.00
2022-09-22T04:52:04.494Z,102084.38
2022-09-22T04:54:32.503Z,102081.09
2022-09-22T04:57:00.381Z,102086.00
2022-09-22T04:59:29.520Z,102085.72
2022-09-22T05:01:57.272Z,102087.06
2022-09-22T05:04:26.356Z,102090.34
2022-09-22T05:06:54.144Z,102091.69
2022-09-22T05:09:21.911Z,102092.25
2022-09-22T05:11:49.976Z,102088.19
2022-09-22T05:14:21.583Z,102089.53
2022-09-22T05:16:52.371Z,102096.31
2022-09-22T05:19:21.051Z,102083.88
2022-09-22T05:21:50.376Z,102095.22
2022-09-22T05:24:18.159Z,102094.69
2022-09-22T05:26:45.911Z,102095.78
2022-09-22T05:29:13.713Z,102090.91
2022-09-22T05:31:41.478Z,102096.31
2022-09-22T05:34:09.594Z,102095.50
2022-09-22T05:36:37.496Z,102097.69
2022-09-22T05:39:06.684Z,102104.72
2022-09-22T05:41:34.663Z,102098.78
2022-09-22T05:44:02.939Z,102097.44
2022-09-22T05:46:30.654Z,102096.59
2022-09-22T05:48:58.448Z,102091.44
2022-09-22T05:51:26.220Z,102096.34
2022-09-22T05:53:54.038Z,102096.34
2022-09-22T05:56:23.181Z,102093.91
2022-09-22T05:58:51.005Z,102093.09
2022-09-22T06:01:19.015Z,102097.69
2022-09-22T06:03:47.136Z,102097.69
2022-09-22T06:06:15.255Z,102096.88
2022-09-22T06:08:48.388Z,102104.16
2022-09-22T06:11:16.794Z,102101.75
2022-09-22T06:13:46.118Z,102107.16
2022-09-22T06:16:13.868Z,102105.25
2022-09-22T06:18:41.592Z,102107.16
2022-09-22T06:21:09.739Z,102112.28
2022-09-22T06:23:42.117Z,102104.44
2022-09-22T06:26:11.028Z,102115.28
2022-09-22T06:28:38.778Z,102113.13
2022-09-22T06:31:07.992Z,102100.13
2022-09-22T06:33:35.908Z,102099.56
2022-09-22T06:36:04.209Z,102102.28
2022-09-22T06:38:32.949Z,102101.19
2022-09-22T06:41:04.274Z,102104.19
2022-09-22T06:43:32.995Z,102097.94
2022-09-22T06:46:02.801Z,102107.09
2022-09-22T06:48:32.101Z,102100.00
2022-09-22T06:51:00.066Z,102104.00
2022-09-22T06:53:29.806Z,102102.56
2022-09-22T06:55:58.442Z,102099.72
2022-09-22T06:58:28.016Z,102099.28
2022-09-22T07:00:55.824Z,102104.22
2022-09-22T07:03:26.458Z,102099.66
2022-09-22T07:05:57.479Z,102099.41
2022-09-22T07:08:26.222Z,102098.34
2022-09-22T07:10:56.237Z,102092.38
2022-09-22T07:13:24.112Z,102089.63
2022-09-22T07:15:52.203Z,102086.56
2022-09-22T07:18:20.023Z,102084.84
2022-09-22T07:20:47.795Z,102091.59
2022-09-22T07:23:19.057Z,102082.81
2022-09-22T07:25:57.191Z,102079.41
2022-09-22T07:28:25.934Z,102083.06
2022-09-22T07:30:53.709Z,102082.34
2022-09-22T07:33:23.276Z,102069.91
2022-09-22T07:35:59.628Z,102078.78
2022-09-22T07:38:36.549Z,102083.19
2022-09-22T07:41:06.781Z,102072.81
2022-09-22T07:43:35.092Z,102079.56
2022-09-22T07:46:03.741Z,102069.44
2022-09-22T07:48:37.787Z,102067.94
2022-09-22T07:51:12.866Z,102076.72
2022-09-22T07:53:46.873Z,102074.69
2022-09-22T07:56:16.348Z,102075.06
2022-09-22T07:58:49.989Z,102071.22
2022-09-22T08:01:18.944Z,102070.59
2022-09-22T08:03:47.296Z,102064.66
2022-09-22T08:06:18.337Z,102065.16
2022-09-22T08:08:52.403Z,102064.63
2022-09-22T08:11:22.915Z,102063.44
2022-09-22T08:13:53.331Z,102069.03
2022-09-22T08:16:22.631Z,102064.41
2022-09-22T08:18:56.705Z,102065.31
2022-09-22T08:21:24.651Z,102066.97
2022-09-22T08:23:54.442Z,102060.53
2022-09-22T08:26:22.831Z,102071.81
2022-09-22T08:28:53.078Z,102062.16
2022-09-22T08:31:21.598Z,102068.72
2022-09-22T08:33:52.005Z,102063.63
2022-09-22T08:36:19.854Z,102062.03
2022-09-22T08:38:49.388Z,102055.47
2022-09-22T08:41:26.326Z,102065.84
2022-09-22T08:43:56.385Z,102062.75
2022-09-22T08:46:28.400Z,102070.47
2022-09-22T08:49:16.179Z,102066.88
2022-09-22T08:51:55.630Z,102062.91
2022-09-22T08:54:28.475Z,102067.19
2022-09-22T08:57:21.501Z,102060.53
2022-09-22T08:59:54.335Z,102068.16
2022-09-22T09:02:50.711Z,102066.66
2022-09-22T09:05:48.510Z,102061.63
2022-09-22T09:08:43.923Z,102065.88
2022-09-22T09:11:26.368Z,102053.63
2022-09-22T09:14:13.008Z,102061.34
2022-09-22T09:16:49.883Z,102059.25
2022-09-22T09:19:20.253Z,102058.38
2022-09-22T09:21:54.199Z,102060.66
2022-09-22T09:27:24.442Z,102056.91
2022-09-22T09:30:04.497Z,102058.66
2022-09-22T09:32:43.309Z,102056.81
2022-09-22T09:35:15.568Z,102057.00
2022-09-22T09:37:46.113Z,102047.44
2022-09-22T09:40:18.154Z,102045.00
2022-09-22T09:42:48.815Z,102045.53
2022-09-22T09:45:23.692Z,102043.28
2022-09-22T09:48:20.397Z,102042.38
2022-09-22T09:50:50.639Z,102040.31
2022-09-22T09:53:31.132Z,102036.00
2022-09-22T09:55:59.032Z,102040.13
2022-09-22T09:58:44.499Z,102037.50
2022-09-22T10:01:16.618Z,102033.25
2022-09-22T10:03:48.309Z,102031.97
2022-09-22T10:06:25.224Z,102028.06
2022-09-22T10:08:53.392Z,102020.75
2022-09-22T10:11:30.972Z,102017.75
2022-09-22T10:14:01.143Z,102012.59
2022-09-22T10:16:34.300Z,102006.28
2022-09-22T10:19:23.155Z,102000.69
2022-09-22T10:21:51.185Z,101995.72
2022-09-22T10:24:31.885Z,102003.72
2022-09-22T10:27:02.567Z,101996.69
2022-09-22T10:29:33.192Z,101994.97
2022-09-22T10:32:07.618Z,101993.28
2022-09-22T10:34:37.866Z,101984.22
2022-09-22T10:37:10.701Z,101990.53
2022-09-22T10:39:45.124Z,101981.50
2022-09-22T10:42:25.846Z,101989.97
2022-09-22T10:44:57.295Z,101988.44
2022-09-22T10:47:34.030Z,101994.31
2022-09-22T10:50:25.245Z,101984.38
2022-09-22T10:52:58.491Z,101986.59
2022-09-22T10:55:31.277Z,101979.31
2022-09-22T10:58:26.821Z,101980.09
2022-09-22T11:01:09.472Z,101981.41
2022-09-22T11:04:11.537Z,101972.56
2022-09-22T11:07:17.676Z,101981.22
2022-09-22T11:10:10.793Z,101973.25
2022-09-22T11:12:49.248Z,101965.97
2022-09-22T11:15:27.191Z,101970.22
2022-09-22T11:18:27.692Z,101959.16
2022-09-22T11:21:05.687Z,101964.28
2022-09-22T11:23:56.934Z,101959.16
2022-09-22T11:26:37.937Z,101954.53
2022-09-22T11:29:30.280Z,101956.00
2022-09-22T11:32:07.194Z,101949.91
2022-09-22T11:34:56.019Z,101952.41
2022-09-22T11:37:44.088Z,101943.69
2022-09-22T11:40:33.611Z,101939.41
2022-09-22T11:43:16.814Z,101939.56
2022-09-22T11:45:50.414Z,101936.63
2022-09-22T11:48:29.838Z,101936.06
2022-09-22T11:51:13.421Z,101932.38
2022-09-22T11:54:07.794Z,101922.22
2022-09-22T11:56:41.784Z,101919.88
2022-09-22T11:59:32.542Z,101918.28
2022-09-22T12:02:06.162Z,101917.94
2022-09-22T12:04:40.894Z,101904.56
2022-09-22T12:07:16.348Z,101909.50
2022-09-22T12:09:49.030Z,101905.69
2022-09-22T12:12:19.695Z,101904.94
2022-09-22T12:14:56.279Z,101902.19
2022-09-22T12:17:30.565Z,101898.25
2022-09-22T12:20:08.653Z,101897.81
2022-09-22T12:22:55.065Z,101898.50
2022-09-22T12:25:49.796Z,101886.53
2022-09-22T12:28:20.695Z,101894.72
2022-09-22T12:31:02.293Z,101885.13
2022-09-22T12:33:30.969Z,101881.94
2022-09-22T12:36:00.163Z,101881.06
2022-09-22T12:38:30.367Z,101871.59
2022-09-22T12:41:03.043Z,101876.41
2022-09-22T12:43:32.796Z,101874.81
2022-09-22T12:46:07.116Z,101878.59
2022-09-22T12:48:38.052Z,101873.44
2022-09-22T12:51:31.490Z,101869.03
2022-09-22T12:54:48.095Z,101867.19
2022-09-22T12:57:29.260Z,101863.00
2022-09-22T13:00:27.929Z,101866.06
2022-09-22T13:02:58.558Z,101863.41
2022-09-22T13:05:35.630Z,101854.81
2022-09-22T13:08:04.246Z,101846.34
2022-09-22T13:10:41.623Z,101856.53
2022-09-22T13:13:25.463Z,101849.84
2022-09-22T13:15:59.388Z,101849.94
2022-09-22T13:18:32.056Z,101848.31
2022-09-22T13:21:00.869Z,101846.75
2022-09-22T13:23:29.017Z,101844.88
2022-09-22T13:26:06.230Z,101836.97
2022-09-22T13:28:35.434Z,101831.16
2022-09-22T13:31:06.434Z,101836.59
2022-09-22T13:33:36.394Z,101837.41
2022-09-22T13:36:07.613Z,101824.94
2022-09-22T13:38:39.336Z,101824.22
2022-09-22T13:41:12.447Z,101806.13
2022-09-22T13:43:45.603Z,101818.88
2022-09-22T13:46:22.649Z,101813.38
2022-09-22T13:48:52.458Z,101815.50
2022-09-22T13:51:20.297Z,101809.75
2022-09-22T13:53:52.294Z,101814.50
2022-09-22T13:56:23.460Z,101811.38
2022-09-22T13:58:56.944Z,101807.38
2022-09-22T14:01:28.039Z,101801.75
2022-09-22T14:03:56.884Z,101803.66
2022-09-22T14:06:27.618Z,101800.34
2022-09-22T14:08:57.435Z,101787.91
2022-09-22T14:11:29.515Z,101788.06
2022-09-22T14:14:00.675Z,101789.63
2022-09-22T14:16:32.690Z,101788.84
2022-09-22T14:19:04.787Z,101788.06
2022-09-22T14:21:33.638Z,101784.09
2022-09-22T14:24:02.484Z,101776.88
2022-09-22T14:26:35.809Z,101782.31
2022-09-22T14:29:17.253Z,101786.31
2022-09-22T14:31:48.181Z,101784.97
2022-09-22T14:34:21.281Z,101774.78
2022-09-22T14:36:51.971Z,101772.56
2022-09-22T14:39:24.951Z,101774.25
2022-09-22T14:41:59.034Z,101760.06
2022-09-22T14:44:43.467Z,101764.72
2022-09-22T14:47:27.770Z,101760.06
2022-09-22T14:50:10.784Z,101762.38
2022-09-22T14:52:41.620Z,101756.81
2022-09-22T14:55:16.886Z,101756.78
2022-09-22T14:57:47.605Z,101755.25
2022-09-22T15:00:35.912Z,101751.22
2022-09-22T15:03:07.595Z,101751.91
2022-09-22T15:05:36.177Z,101750.59
2022-09-22T15:08:03.909Z,101744.69
2022-09-22T15:10:34.099Z,101743.94
2022-09-22T15:13:19.999Z,101739.78
2022-09-22T15:15:50.258Z,101735.03
2022-09-22T15:18:19.498Z,101738.19
2022-09-22T15:20:49.931Z,101727.53
2022-09-22T15:23:21.997Z,101733.53
2022-09-22T15:25:50.761Z,101729.91
2022-09-22T15:28:20.197Z,101734.25
2022-09-22T15:30:50.562Z,101723.88
2022-09-22T15:33:19.254Z,101726.84
2022-09-22T15:35:49.320Z,101725.25
2022-09-22T15:38:19.973Z,101727.09
2022-09-22T15:40:49.161Z,101728.59
2022-09-22T15:43:23.193Z,101720.88
2022-09-22T15:45:56.176Z,101715.22
2022-09-22T15:48:27.843Z,101712.06
2022-09-22T15:50:56.512Z,101705.66
2022-09-22T15:53:25.385Z,101713.13
2022-09-22T15:55:54.281Z,101705.13
2022-09-22T15:58:23.958Z,101705.78
2022-09-22T16:00:53.678Z,101705.16
2022-09-22T16:03:23.958Z,101710.13
2022-09-22T16:05:57.105Z,101709.50
2022-09-22T16:08:29.571Z,101708.63
2022-09-22T16:10:58.015Z,101706.97
2022-09-22T16:13:27.063Z,101704.94
2022-09-22T16:15:56.477Z,101697.44
2022-09-22T16:18:24.465Z,101698.19
2022-09-22T16:20:52.334Z,101705.19
2022-09-22T16:23:20.449Z,101704.16
2022-09-22T16:25:53.770Z,101708.09
2022-09-22T16:28:21.564Z,101698.16
2022-09-22T16:30:49.548Z,101702.06
2022-09-22T16:33:18.678Z,101694.59
2022-09-22T16:35:46.580Z,101698.97
2022-09-22T16:38:14.456Z,101696.22
2022-09-22T16:40:42.619Z,101691.41
2022-09-22T16:43:10.965Z,101692.94
2022-09-22T16:45:56.113Z,101698.38
2022-09-22T16:48:25.955Z,101695.94
2022-09-22T16:50:55.075Z,101689.16
2022-09-22T16:53:23.065Z,101683.13
2022-09-22T16:55:50.890Z,101684.63
2022-09-22T16:58:18.767Z,101685.56
2022-09-22T17:00:47.214Z,101677.97
2022-09-22T17:03:15.043Z,101685.38
2022-09-22T17:05:45.068Z,101683.25
2022-09-22T17:08:13.381Z,101684.28
2022-09-22T17:10:41.113Z,101682.81
2022-09-22T17:13:08.850Z,101684.63
2022-09-22T17:15:36.851Z,101679.31
2022-09-22T17:18:05.319Z,101678.72
2022-09-22T17:20:33.142Z,101682.81
2022-09-22T17:23:02.558Z,101689.28
2022-09-22T17:25:30.377Z,101685.38
2022-09-22T17:27:58.385Z,101685.94
2022-09-22T17:30:26.429Z,101688.41
2022-09-22T17:32:54.216Z,101690.09
2022-09-22T17:35:21.999Z,101683.88
2022-09-22T17:37:52.203Z,101687.59
2022-09-22T17:40:21.460Z,101684.66
2022-09-22T17:42:49.284Z,101689.03
2022-09-22T17:45:17.185Z,101688.41
2022-09-22T17:48:02.352Z,101687.66
2022-09-22T17:50:47.570Z,101685.72
2022-09-22T17:53:32.677Z,101687.84
2022-09-22T17:56:05.188Z,101689.94
2022-09-22T17:58:33.445Z,101700.25
2022-09-22T18:01:01.389Z,101695.25
2022-09-22T18:03:29.243Z,101702.47
2022-09-22T18:05:57.551Z,101699.84
2022-09-22T18:08:25.689Z,101701.88
2022-09-22T18:10:54.435Z,101695.34
2022-09-22T18:13:23.547Z,101700.31
2022-09-22T18:15:52.322Z,101695.69
2022-09-22T18:18:20.133Z,101693.88
2022-09-22T18:20:48.420Z,101699.13
2022-09-22T18:23:16.741Z,101691.81
2022-09-22T18:25:44.517Z,101693.16
2022-09-22T18:28:12.270Z,101696.94
2022-09-22T18:30:41.459Z,101696.81
2022-09-22T18:33:09.665Z,101695.44
2022-09-22T18:35:37.468Z,101704.72
2022-09-22T18:38:05.334Z,101697.47
2022-09-22T18:40:33.175Z,101693.78
2022-09-22T18:43:00.995Z,101700.66
2022-09-22T18:45:28.790Z,101692.63
2022-09-22T18:47:59.347Z,101693.28
2022-09-22T18:50:30.544Z,101692.22
2022-09-22T18:52:58.377Z,101694.41
2022-09-22T18:55:26.291Z,101694.59
2022-09-22T18:57:54.270Z,101694.78
2022-09-22T19:00:22.187Z,101685.16
2022-09-22T19:02:50.505Z,101692.81
2022-09-22T19:05:20.219Z,101696.56
2022-09-22T19:07:48.373Z,101693.22
2022-09-22T19:10:18.858Z,101690.66
2022-09-22T19:12:47.142Z,101692.84
2022-09-22T19:15:18.842Z,101692.69
2022-09-22T19:17:49.597Z,101689.34
2022-09-22T19:20:23.851Z,101696.16
2022-09-22T19:22:53.913Z,101696.38
2022-09-22T19:25:22.600Z,101699.63
2022-09-22T19:27:52.468Z,101692.41
2022-09-22T19:30:23.320Z,101689.69
2022-09-22T19:32:52.502Z,101687.81
2022-09-22T19:35:22.727Z,101684.00
2022-09-22T19:37:51.833Z,101690.78
2022-09-22T19:40:20.407Z,101686.97
2022-09-22T19:42:49.858Z,101684.75
2022-09-22T19:45:18.593Z,101684.44
2022-09-22T19:47:47.167Z,101683.81
2022-09-22T19:50:15.092Z,101674.19
2022-09-22T19:52:44.276Z,101683.41
2022-09-22T19:55:12.606Z,101677.63
2022-09-22T19:57:41.782Z,101676.19
2022-09-22T20:00:12.462Z,101676.38
2022-09-22T20:02:40.617Z,101681.53
2022-09-22T20:05:19.140Z,101675.78
2022-09-22T20:07:48.337Z,101676.72
2022-09-22T20:10:17.334Z,101683.19
2022-09-22T20:12:45.121Z,101683.38
2022-09-22T20:15:15.535Z,101676.41
2022-09-22T20:17:46.312Z,101676.63
2022-09-22T20:20:15.426Z,101675.97
2022-09-22T20:22:43.208Z,101662.47
2022-09-22T20:25:22.088Z,101668.41
2022-09-22T20:27:49.846Z,101670.19
2022-09-22T20:30:18.297Z,101668.09
2022-09-22T20:32:46.602Z,101672.91
2022-09-22T20:35:17.342Z,101670.03
2022-09-22T20:37:45.560Z,101671.31
2022-09-22T20:40:18.634Z,101671.16
2022-09-22T20:42:46.981Z,101663.94
2022-09-22T20:45:14.789Z,101659.75
2022-09-22T20:47:44.409Z,101666.16
2022-09-22T20:50:12.445Z,101661.69
2022-09-22T20:52:40.748Z,101660.22
2022-09-22T20:55:09.443Z,101652.16
2022-09-22T20:57:38.981Z,101652.31
2022-09-22T21:00:08.332Z,101656.84
2022-09-22T21:02:36.266Z,101658.09
2022-09-22T21:05:04.314Z,101654.09
2022-09-22T21:07:32.541Z,101652.31
2022-09-22T21:10:18.035Z,101650.22
2022-09-22T21:12:47.149Z,101644.88
2022-09-22T21:15:15.111Z,101644.69
2022-09-22T21:17:44.170Z,101648.38
2022-09-22T21:20:12.376Z,101645.78
2022-09-22T21:22:40.693Z,101642.06
2022-09-22T21:25:11.006Z,101648.50
2022-09-22T21:27:38.885Z,101652.19
2022-09-22T21:30:09.446Z,101652.81
2022-09-22T21:32:37.752Z,101653.44
2022-09-22T21:35:06.606Z,101655.19
2022-09-22T21:37:34.336Z,101649.06
2022-09-22T21:40:02.494Z,101658.19
2022-09-22T21:42:31.287Z,101647.91
2022-09-22T21:44:59.409Z,101653.97
2022-09-22T21:47:28.524Z,101643.06
2022-09-22T21:49:56.291Z,101641.47
2022-09-22T21:52:24.036Z,101643.72
2022-09-22T21:54:51.742Z,101638.91
2022-09-22T21:57:19.476Z,101631.19
2022-09-22T21:59:47.235Z,101626.88
2022-09-22T22:02:15.000Z,101632.31
2022-09-22T22:04:46.476Z,101622.81
2022-09-22T22:07:15.314Z,101619.94
2022-09-22T22:09:43.022Z,101621.84
2022-09-22T22:12:12.744Z,101618.31
2022-09-22T22:14:40.492Z,101614.28
2022-09-22T22:17:08.536Z,101618.94
2022-09-22T22:19:36.350Z,101613.47
2022-09-22T22:22:06.547Z,101606.41
2022-09-22T22:24:39.944Z,101614.13
2022-09-22T22:27:09.962Z,101601.59
2022-09-22T22:29:39.575Z,101595.63
2022-09-22T22:32:09.285Z,101603.81
2022-09-22T22:34:37.388Z,101600.63
2022-09-22T22:37:09.514Z,101600.63
2022-09-22T22:39:37.532Z,101601.72
2022-09-22T22:42:05.987Z,101596.91
2022-09-22T22:44:35.188Z,101590.16
2022-09-22T22:47:03.125Z,101594.81
2022-09-22T22:49:31.375Z,101597.84
2022-09-22T22:51:59.169Z,101592.72
2022-09-22T22:54:28.272Z,101588.69
2022-09-22T22:56:56.235Z,101592.84
2022-09-22T22:59:23.994Z,101587.19
2022-09-22T23:01:51.836Z,101592.81
2022-09-22T23:04:20.427Z,101589.06
2022-09-22T23:06:48.507Z,101579.94
2022-09-22T23:09:18.229Z,101582.47
2022-09-22T23:11:47.636Z,101578.75
2022-09-22T23:14:16.159Z,101584.81
2022-09-22T23:16:46.592Z,101584.34
2022-09-22T23:19:16.833Z,101583.34
2022-09-22T23:21:48.759Z,101585.34
2022-09-22T23:24:19.348Z,101578.13
2022-09-22T23:26:48.586Z,101573.28
2022-09-22T23:29:16.486Z,101573.59
2022-09-22T23:31:44.243Z,101572.91
2022-09-22T23:34:12.045Z,101563.13
2022-09-22T23:36:40.588Z,101570.31
2022-09-22T23:39:08.581Z,101568.22
2022-09-22T23:41:37.893Z,101565.47
2022-09-22T23:44:07.391Z,101565.31
2022-09-22T23:46:35.273Z,101564.50
2022-09-22T23:49:03.351Z,101553.09
2022-09-22T23:51:31.496Z,101551.81
2022-09-22T23:53:59.638Z,101550.00
2022-09-22T23:56:27.604Z,101549.50
2022-09-22T23:58:55.357Z,101551.25
